Time;durP1;ratioP1;P1;durP2;ratioP2;P2;SDS_P1;SDS_P2;PMS_P1;PMS_P2;Temp;Humidity;BMP_temperature;BMP_pressure;BME280_temperature;BME280_humidity;BME280_pressure;Samples;Min_cycle;Max_cycle;Signal;HPM_P1;HPM_P2
2021/07/27 00:02:12;;;;;;;8.68;6.30;;;;;;;20.10;73.65;100899.66;10109410;28;20138;-71
2021/07/27 00:07:08;;;;;;;6.90;5.22;;;;;;;20.07;73.64;100889.31;10103941;28;20066;-71
2021/07/27 00:12:05;;;;;;;9.18;6.22;;;;;;;20.08;73.80;100891.72;10115677;28;20071;-70
2021/07/27 00:17:01;;;;;;;7.85;5.45;;;;;;;20.05;73.87;100891.66;10109149;28;20055;-74
2021/07/27 00:21:58;;;;;;;9.32;5.72;;;;;;;20.00;73.97;100872.56;10108185;28;20050;-74
2021/07/27 00:26:55;;;;;;;9.45;6.20;;;;;;;19.96;73.89;100875.31;10109903;28;20536;-72
2021/07/27 00:31:51;;;;;;;9.18;6.22;;;;;;;19.94;74.10;100881.25;10129470;28;20046;-73
2021/07/27 00:36:48;;;;;;;8.90;6.05;;;;;;;19.89;74.21;100872.44;10102802;28;20109;-74
2021/07/27 00:41:44;;;;;;;9.02;6.55;;;;;;;19.86;74.01;100857.34;10117940;28;20129;-74
2021/07/27 00:46:40;;;;;;;9.98;7.05;;;;;;;19.84;74.50;100864.44;10127393;28;20150;-70
2021/07/27 00:51:39;;;;;;;9.82;6.93;;;;;;;19.81;74.72;100876.31;10117360;28;20047;-70
2021/07/27 00:56:35;;;;;;;10.80;6.13;;;;;;;19.82;74.67;100873.16;10095891;28;20557;-71
2021/07/27 01:01:32;;;;;;;10.02;6.47;;;;;;;19.78;75.08;100869.53;10114031;28;20055;-73
2021/07/27 01:06:29;;;;;;;10.18;6.53;;;;;;;19.73;75.11;100872.66;10107500;28;20039;-73
2021/07/27 01:11:25;;;;;;;13.05;7.30;;;;;;;19.71;75.57;100867.47;10103645;28;20071;-69
2021/07/27 01:16:28;;;;;;;10.45;6.15;;;;;;;19.65;75.78;100868.16;10110510;28;20054;-70
2021/07/27 01:42:25;;;;;;;9.23;6.10;;;;;;;19.51;75.98;100868.75;10102428;28;20139;-71
2021/07/27 01:47:22;;;;;;;9.68;6.10;;;;;;;19.48;76.15;100875.84;10108532;28;20114;-68
2021/07/27 01:52:23;;;;;;;11.77;6.28;;;;;;;19.46;75.99;100872.66;10123277;28;20038;-68
2021/07/27 01:57:21;;;;;;;8.80;5.78;;;;;;;19.44;76.41;100875.00;10109227;28;20046;-71
2021/07/27 02:02:25;;;;;;;9.65;6.50;;;;;;;19.40;76.48;100879.72;10097166;28;20142;-72
2021/07/27 02:07:21;;;;;;;9.43;5.65;;;;;;;19.36;76.56;100884.41;10107438;28;20085;-71
2021/07/27 02:12:22;;;;;;;9.65;6.20;;;;;;;19.35;76.67;100888.31;10109964;28;20047;-73
2021/07/27 02:17:18;;;;;;;8.80;5.55;;;;;;;19.34;76.60;100892.28;10109867;28;20138;-72
2021/07/27 02:22:17;;;;;;;9.88;6.15;;;;;;;19.32;77.01;100895.41;10106662;28;20082;-70
2021/07/27 02:27:13;;;;;;;9.55;6.47;;;;;;;19.36;76.96;100889.94;10105917;28;20051;-70
2021/07/27 02:32:11;;;;;;;8.98;5.53;;;;;;;19.40;76.70;100890.81;10108665;28;20066;-69
2021/07/27 02:37:08;;;;;;;9.30;6.25;;;;;;;19.42;76.42;100893.97;10100617;28;20094;-69
2021/07/27 02:42:04;;;;;;;10.38;6.13;;;;;;;19.42;76.35;100905.06;10104247;28;20078;-69
2021/07/27 02:47:04;;;;;;;9.02;5.63;;;;;;;19.41;76.23;100891.59;10110240;28;20129;-73
2021/07/27 02:52:01;;;;;;;8.60;5.35;;;;;;;19.37;76.24;100888.75;10107260;28;20058;-75
2021/07/27 02:56:59;;;;;;;8.20;5.63;;;;;;;19.37;75.91;100893.50;10109668;28;20054;-74
2021/07/27 03:01:56;;;;;;;8.25;6.13;;;;;;;19.32;76.04;100905.72;10106904;28;20077;-73
2021/07/27 03:06:52;;;;;;;10.38;6.13;;;;;;;19.28;75.99;100913.16;10089190;28;20051;-74
2021/07/27 03:11:50;;;;;;;7.95;6.05;;;;;;;19.29;76.25;100912.00;10108117;28;20051;-74
2021/07/27 03:16:48;;;;;;;11.43;6.43;;;;;;;19.33;75.43;100901.75;10093158;28;20047;-72
2021/07/27 03:21:46;;;;;;;10.35;6.57;;;;;;;19.33;75.08;100901.75;10105473;28;20101;-72
2021/07/27 03:26:42;;;;;;;9.30;6.60;;;;;;;19.37;74.35;100901.81;10108270;28;20047;-71
2021/07/27 03:31:39;;;;;;;10.27;7.13;;;;;;;19.39;73.35;100897.50;10105858;28;20081;-73
2021/07/27 03:36:35;;;;;;;8.95;6.85;;;;;;;19.40;72.55;100899.13;10116741;28;20085;-72
2021/07/27 03:41:31;;;;;;;10.50;6.47;;;;;;;19.39;72.63;100905.81;10103944;28;20047;-67
2021/07/27 03:46:28;;;;;;;12.38;7.40;;;;;;;19.41;72.47;100906.25;10103932;28;20504;-72
2021/07/27 03:51:24;;;;;;;8.75;6.28;;;;;;;19.39;72.59;100911.38;10107517;28;20838;-71
2021/07/27 03:56:21;;;;;;;9.90;6.40;;;;;;;19.46;72.09;100911.47;10111116;28;20595;-71
2021/07/27 04:01:17;;;;;;;10.65;6.60;;;;;;;19.45;71.84;100903.53;10114481;28;20077;-71
2021/07/27 04:06:14;;;;;;;10.20;6.47;;;;;;;19.43;71.64;100917.75;10111986;28;20064;-71
2021/07/27 04:11:11;;;;;;;10.43;6.75;;;;;;;19.39;71.23;100928.00;10112014;28;20564;-71
2021/07/27 04:16:07;;;;;;;8.57;6.05;;;;;;;19.39;70.88;100922.44;10114415;28;20146;-69
2021/07/27 04:21:04;;;;;;;9.98;5.93;;;;;;;19.40;70.52;100929.63;10102718;28;20051;-68
2021/07/27 04:26:02;;;;;;;11.18;6.30;;;;;;;19.39;70.08;100922.44;10091244;28;20051;-70
2021/07/27 04:30:59;;;;;;;9.07;6.22;;;;;;;19.38;70.16;100931.97;10094078;28;20519;-70
2021/07/27 04:35:59;;;;;;;8.20;6.28;;;;;;;19.40;70.22;100932.38;10115602;28;20062;-70
2021/07/27 04:40:56;;;;;;;9.73;7.43;;;;;;;19.37;70.50;100940.63;10103399;28;20101;-70
2021/07/27 04:45:52;;;;;;;12.07;7.03;;;;;;;19.37;70.95;100924.78;10100944;28;20070;-69
2021/07/27 04:50:49;;;;;;;12.25;7.03;;;;;;;19.42;71.04;100932.78;10093890;28;20038;-68
2021/07/27 04:55:45;;;;;;;10.75;7.43;;;;;;;19.44;70.55;100949.84;10100922;28;20561;-69
2021/07/27 05:00:42;;;;;;;9.50;7.07;;;;;;;19.47;70.51;100940.81;10082799;28;20675;-69
2021/07/27 05:05:39;;;;;;;10.60;7.45;;;;;;;19.46;69.96;100944.75;10088290;28;20148;-68
2021/07/27 05:10:35;;;;;;;11.45;7.25;;;;;;;19.47;70.28;100962.16;10088067;28;20416;-68
2021/07/27 05:15:32;;;;;;;11.00;8.63;;;;;;;19.47;70.27;100946.34;10090351;28;20082;-68
2021/07/27 05:20:28;;;;;;;13.10;10.25;;;;;;;19.45;70.45;100948.69;10086703;28;20129;-68
2021/07/27 05:25:25;;;;;;;11.48;8.88;;;;;;;19.60;69.97;100946.13;10097954;28;20055;-69
2021/07/27 05:30:23;;;;;;;12.00;7.75;;;;;;;19.73;70.03;100942.00;10087398;28;20051;-68
2021/07/27 05:35:19;;;;;;;12.95;8.32;;;;;;;19.88;69.43;100943.78;10082414;28;20079;-69
2021/07/27 05:40:16;;;;;;;11.02;8.40;;;;;;;20.03;69.47;100943.97;10090448;28;20079;-68
2021/07/27 05:45:12;;;;;;;13.35;8.57;;;;;;;20.04;69.04;100940.03;10093200;28;20679;-68
2021/07/27 05:50:11;;;;;;;14.77;11.10;;;;;;;19.99;68.95;100945.91;10100890;28;20536;-69
2021/07/27 05:55:08;;;;;;;15.05;10.70;;;;;;;19.91;69.10;100953.31;10091289;28;20098;-70
2021/07/27 06:00:05;;;;;;;16.27;10.82;;;;;;;19.89;69.23;100950.94;10097025;28;20097;-70
2021/07/27 06:05:02;;;;;;;15.18;11.70;;;;;;;19.78;69.33;100955.53;10111037;28;20101;-70
2021/07/27 06:09:58;;;;;;;16.80;11.40;;;;;;;19.74;69.80;100955.47;10094805;28;20098;-70
2021/07/27 06:14:55;;;;;;;17.75;11.77;;;;;;;19.83;70.08;100955.22;10105339;28;20047;-70
2021/07/27 06:19:51;;;;;;;14.98;11.32;;;;;;;19.91;69.64;100954.16;10105295;28;20050;-71
2021/07/27 06:24:48;;;;;;;18.63;13.35;;;;;;;19.89;69.96;100952.91;10110146;28;20043;-69
2021/07/27 06:29:44;;;;;;;19.45;13.05;;;;;;;19.81;70.15;100965.88;10103918;28;20047;-70
2021/07/27 06:34:41;;;;;;;19.67;13.68;;;;;;;19.76;70.35;100957.88;10114131;28;20069;-70
2021/07/27 06:39:38;;;;;;;20.75;13.48;;;;;;;19.79;70.68;100957.13;10104884;28;20097;-71
2021/07/27 06:44:35;;;;;;;19.30;13.23;;;;;;;19.90;70.66;100968.38;10103393;28;20183;-70
2021/07/27 06:49:31;;;;;;;15.82;11.90;;;;;;;19.99;70.25;100971.69;10100730;28;20042;-70
2021/07/27 06:54:28;;;;;;;15.35;12.68;;;;;;;20.06;70.25;100977.31;10102692;28;20105;-69
2021/07/27 06:59:25;;;;;;;17.90;12.50;;;;;;;20.16;70.00;100971.09;10092409;28;20729;-71
2021/07/27 07:04:21;;;;;;;17.73;13.40;;;;;;;20.18;69.60;100973.50;10082211;28;20105;-68
2021/07/27 07:09:17;;;;;;;20.52;14.70;;;;;;;20.18;69.47;100973.50;10075238;28;20078;-69
2021/07/27 07:14:14;;;;;;;16.83;12.80;;;;;;;20.29;68.92;100974.44;10083890;28;20071;-70
2021/07/27 07:19:10;;;;;;;16.92;13.13;;;;;;;20.37;67.96;100981.66;10094163;28;20043;-70
2021/07/27 07:24:07;;;;;;;15.95;12.27;;;;;;;20.47;67.59;100980.22;10096369;28;20489;-70
2021/07/27 07:29:03;;;;;;;15.23;11.05;;;;;;;20.56;67.31;100972.41;10105119;28;20516;-70
2021/07/27 07:34:00;;;;;;;15.85;11.43;;;;;;;20.67;66.73;100977.28;10104780;28;20089;-70
2021/07/27 07:38:56;;;;;;;15.27;10.73;;;;;;;20.72;66.38;100974.16;10095566;28;20128;-69
2021/07/27 07:43:53;;;;;;;16.75;10.18;;;;;;;20.78;66.81;100973.44;10090992;28;20043;-70
2021/07/27 07:48:50;;;;;;;14.57;10.15;;;;;;;20.80;67.11;100973.84;10100168;28;20039;-70
2021/07/27 07:53:47;;;;;;;12.43;9.43;;;;;;;20.81;65.60;100983.78;10106243;28;20111;-69
2021/07/27 07:58:44;;;;;;;11.10;8.68;;;;;;;20.88;66.66;100982.25;10097042;28;20051;-69
2021/07/27 08:03:41;;;;;;;10.82;8.20;;;;;;;21.01;64.85;100983.59;10099208;28;20134;-69
2021/07/27 08:08:39;;;;;;;12.07;8.77;;;;;;;21.08;64.39;100992.00;10099327;28;20047;-69
2021/07/27 08:13:35;;;;;;;15.18;10.02;;;;;;;21.04;65.18;100982.81;10089678;28;20071;-70
2021/07/27 08:18:32;;;;;;;12.70;8.75;;;;;;;21.16;64.92;100987.28;10099760;28;20135;-69
2021/07/27 08:23:29;;;;;;;12.40;8.50;;;;;;;21.22;64.55;100992.13;10112767;28;20047;-70
2021/07/27 08:28:26;;;;;;;9.63;7.20;;;;;;;21.34;64.35;100995.78;10110662;28;20099;-70
2021/07/27 08:33:23;;;;;;;10.82;7.38;;;;;;;21.67;64.42;100988.50;10110467;28;20149;-69
2021/07/27 08:38:19;;;;;;;10.18;6.93;;;;;;;21.92;63.03;101000.59;10101108;28;20082;-70
2021/07/27 08:43:17;;;;;;;9.18;7.07;;;;;;;21.83;61.96;101002.91;10103826;28;20081;-70
2021/07/27 08:48:23;;;;;;;11.60;8.23;;;;;;;21.77;62.99;101016.41;10107364;28;20074;-70
2021/07/27 08:53:20;;;;;;;13.38;9.95;;;;;;;21.59;64.01;101023.84;10102463;28;20074;-69
2021/07/27 08:58:18;;;;;;;13.75;10.38;;;;;;;21.55;68.09;101026.56;10114319;28;20050;-69
2021/07/27 09:03:20;;;;;;;13.85;10.20;;;;;;;21.53;66.37;101023.38;10090547;28;20054;-69
2021/07/27 09:08:17;;;;;;;15.18;10.10;;;;;;;21.54;67.66;101013.88;10112565;28;20736;-70
2021/07/27 09:13:15;;;;;;;14.68;9.60;;;;;;;21.56;65.68;101033.75;10114341;28;20468;-69
2021/07/27 09:18:21;;;;;;;13.02;7.57;;;;;;;21.66;63.27;101025.88;10110610;28;20057;-69
2021/07/27 09:23:28;;;;;;;8.02;5.38;;;;;;;21.96;60.64;101020.91;10113711;28;20755;-70
2021/07/27 09:28:26;;;;;;;10.48;6.20;;;;;;;21.91;61.21;101024.06;10101440;28;20050;-69
2021/07/27 09:33:31;;;;;;;9.70;7.07;;;;;;;21.83;60.99;101019.63;10091395;28;20113;-70
2021/07/27 09:38:34;;;;;;;10.27;7.72;;;;;;;21.76;61.07;101030.72;10087629;28;20066;-68
2021/07/27 09:43:31;;;;;;;9.93;7.30;;;;;;;21.74;61.37;101021.94;10092167;28;20074;-68
2021/07/27 09:48:29;;;;;;;11.13;7.00;;;;;;;21.94;61.43;101022.47;10085332;28;20134;-69
2021/07/27 09:53:25;;;;;;;8.95;6.78;;;;;;;22.58;59.89;101019.22;10090245;28;20094;-69
2021/07/27 09:58:22;;;;;;;8.45;5.82;;;;;;;22.74;57.75;101013.28;10096489;28;20058;-68
2021/07/27 10:03:27;;;;;;;9.63;6.68;;;;;;;22.94;57.57;101024.91;10105619;28;20078;-69
2021/07/27 10:08:30;;;;;;;12.70;8.98;;;;;;;22.50;58.47;101025.97;10096510;28;20114;-67
2021/07/27 10:13:33;;;;;;;12.77;7.05;;;;;;;22.11;60.96;101023.75;10083215;28;20067;-69
2021/07/27 10:18:33;;;;;;;7.35;4.63;;;;;;;22.93;58.72;101031.66;10099660;28;20047;-70
2021/07/27 10:23:32;;;;;;;8.00;5.63;;;;;;;23.76;54.72;101035.34;10083326;28;20050;-68
2021/07/27 10:28:29;;;;;;;7.18;5.18;;;;;;;24.10;53.61;101049.66;10091159;28;20042;-69
2021/07/27 10:33:29;;;;;;;7.85;5.20;;;;;;;24.21;53.03;101044.84;10084677;28;20437;-69
2021/07/27 10:38:37;;;;;;;10.45;6.43;;;;;;;24.68;51.57;101034.28;10103177;28;20492;-70
2021/07/27 10:43:34;;;;;;;10.43;8.20;;;;;;;25.10;49.22;101045.63;10104524;28;20505;-70
2021/07/27 10:48:35;;;;;;;11.02;7.53;;;;;;;25.27;49.75;101032.75;10090377;28;20043;-69
2021/07/27 10:53:35;;;;;;;10.73;8.43;;;;;;;25.44;49.61;101019.84;10101309;28;20496;-70
2021/07/27 10:58:33;;;;;;;13.65;9.93;;;;;;;25.53;49.93;101020.13;10096215;28;20050;-69
2021/07/27 11:03:30;;;;;;;11.63;8.88;;;;;;;24.69;51.73;101023.91;10089380;28;20058;-68
2021/07/27 11:08:27;;;;;;;10.98;7.47;;;;;;;24.40;51.04;101024.00;10090395;28;20413;-69
2021/07/27 11:13:23;;;;;;;11.75;6.93;;;;;;;24.25;51.80;101022.47;10084888;28;20716;-69
2021/07/27 11:18:19;;;;;;;11.82;9.25;;;;;;;24.28;52.85;101021.66;10085849;28;20150;-68
2021/07/27 11:23:18;;;;;;;15.52;9.82;;;;;;;23.82;55.19;101022.59;10082801;28;20055;-70
2021/07/27 11:28:15;;;;;;;9.40;6.32;;;;;;;23.54;53.85;101026.97;10090332;28;20046;-68
2021/07/27 11:33:18;;;;;;;12.75;7.82;;;;;;;23.86;54.17;101026.19;10088318;28;20046;-68
2021/07/27 11:38:25;;;;;;;9.55;6.53;;;;;;;24.10;54.07;101022.50;10092435;28;20058;-68
2021/07/27 11:43:31;;;;;;;12.38;6.80;;;;;;;24.15;52.82;101036.06;10090862;28;20079;-68
2021/07/27 11:48:33;;;;;;;11.55;7.60;;;;;;;24.05;52.51;101008.97;10095849;28;20580;-69
2021/07/27 11:53:36;;;;;;;10.33;7.17;;;;;;;23.98;52.91;101014.56;10102643;28;20112;-69
2021/07/27 11:58:33;;;;;;;9.40;7.00;;;;;;;24.30;53.13;100996.91;10103040;28;20468;-68
2021/07/27 12:03:29;;;;;;;9.50;7.03;;;;;;;24.78;52.20;100993.47;10108791;28;20045;-71
2021/07/27 12:08:26;;;;;;;12.52;6.97;;;;;;;24.73;50.27;100991.91;10099387;28;20039;-69
2021/07/27 12:13:22;;;;;;;9.45;7.07;;;;;;;24.54;50.79;101001.59;10100119;28;20043;-70
2021/07/27 12:18:19;;;;;;;12.43;7.32;;;;;;;24.76;51.11;101007.06;10106236;28;20039;-68
2021/07/27 12:23:18;;;;;;;11.57;7.07;;;;;;;24.56;51.05;100993.63;10111220;28;20501;-67
2021/07/27 12:28:29;;;;;;;11.50;7.47;;;;;;;24.35;51.87;100994.50;10113244;28;20109;-69
2021/07/27 12:33:25;;;;;;;10.55;7.80;;;;;;;24.40;51.22;100989.69;10115185;28;20050;-68
2021/07/27 12:38:23;;;;;;;10.52;7.57;;;;;;;24.35;51.19;100988.09;10115521;28;20038;-70
2021/07/27 12:43:19;;;;;;;11.00;8.25;;;;;;;23.93;51.73;100995.44;10077417;28;20043;-70
2021/07/27 12:48:15;;;;;;;13.80;8.30;;;;;;;24.04;51.81;100990.59;10095292;28;20051;-68
2021/07/27 12:53:12;;;;;;;11.70;7.25;;;;;;;24.56;51.25;100982.44;10094035;28;20047;-68
2021/07/27 12:58:09;;;;;;;14.65;8.25;;;;;;;24.78;50.10;100987.88;10098927;28;20047;-68
2021/07/27 13:03:06;;;;;;;10.27;7.57;;;;;;;24.96;48.98;100988.56;10097925;28;20046;-69
2021/07/27 13:08:03;;;;;;;13.20;7.63;;;;;;;25.32;47.00;100981.91;10090606;28;20042;-68
2021/07/27 13:12:59;;;;;;;9.90;6.80;;;;;;;25.43;46.60;100970.66;10106238;28;20046;-68
2021/07/27 13:17:58;;;;;;;12.30;7.05;;;;;;;25.23;47.07;100978.81;10113773;28;20055;-69
2021/07/27 13:22:55;;;;;;;8.82;6.40;;;;;;;25.13;47.81;100966.47;10106577;28;20050;-71
2021/07/27 13:27:52;;;;;;;9.02;6.38;;;;;;;25.30;46.07;100965.56;10108716;28;20501;-69
2021/07/27 13:32:48;;;;;;;10.75;6.70;;;;;;;25.44;45.79;100966.66;10110535;28;20046;-71
2021/07/27 13:37:45;;;;;;;9.52;5.88;;;;;;;25.73;42.62;100970.72;10098088;28;20528;-69
2021/07/27 13:42:42;;;;;;;10.18;6.28;;;;;;;25.74;43.70;100969.53;10099088;28;20046;-68
2021/07/27 13:47:38;;;;;;;12.95;7.60;;;;;;;25.35;44.32;100975.53;10101476;28;20470;-71
2021/07/27 13:52:35;;;;;;;9.02;6.40;;;;;;;25.43;44.25;100965.03;10098571;28;20057;-70
2021/07/27 13:57:32;;;;;;;10.10;6.90;;;;;;;25.58;43.67;100966.50;10098663;28;20569;-69
2021/07/27 14:02:30;;;;;;;11.38;7.47;;;;;;;25.49;43.79;100955.78;10093320;28;20050;-69
2021/07/27 14:07:27;;;;;;;7.93;5.85;;;;;;;25.97;42.89;100945.69;10098245;28;20492;-69
2021/07/27 14:12:27;;;;;;;11.23;6.20;;;;;;;25.82;40.83;100931.81;10104901;28;20137;-69
2021/07/27 14:17:24;;;;;;;8.18;6.10;;;;;;;25.53;42.43;100931.38;10102701;28;20047;-69
2021/07/27 14:22:20;;;;;;;9.27;5.90;;;;;;;25.70;42.05;100940.78;10101948;28;20421;-68
2021/07/27 14:27:17;;;;;;;9.25;5.45;;;;;;;25.87;42.69;100932.63;10106494;28;20512;-68
2021/07/27 14:32:14;;;;;;;9.07;5.68;;;;;;;25.70;40.79;100934.38;10106905;28;20049;-70
2021/07/27 14:37:11;;;;;;;7.85;5.97;;;;;;;25.92;41.96;100932.16;10085450;28;20179;-69
2021/07/27 14:42:07;;;;;;;8.60;5.45;;;;;;;25.92;42.61;100924.53;10099616;28;20077;-70
2021/07/27 14:47:04;;;;;;;9.57;5.43;;;;;;;26.05;41.32;100916.38;10095544;28;20054;-69
2021/07/27 14:52:00;;;;;;;9.25;5.93;;;;;;;26.16;39.94;100928.25;10088191;28;20078;-69
2021/07/27 14:56:59;;;;;;;9.18;6.72;;;;;;;26.20;39.06;100909.38;10097920;28;20084;-70
2021/07/27 15:01:56;;;;;;;9.23;6.93;;;;;;;26.20;39.60;100909.38;10094621;28;20083;-69
2021/07/27 15:06:52;;;;;;;9.90;6.68;;;;;;;26.27;39.68;100910.47;10096072;28;20055;-68
2021/07/27 15:11:49;;;;;;;9.70;6.30;;;;;;;26.14;38.65;100913.88;10083179;28;20046;-69
2021/07/27 15:16:45;;;;;;;9.10;6.07;;;;;;;25.79;39.78;100909.47;10081572;28;20058;-69
2021/07/27 15:21:42;;;;;;;9.38;6.28;;;;;;;25.57;40.38;100914.50;10092113;28;20173;-69
2021/07/27 15:26:39;;;;;;;9.38;6.60;;;;;;;25.70;39.71;100912.78;10095927;28;20090;-68
2021/07/27 15:31:36;;;;;;;10.27;6.57;;;;;;;26.00;39.18;100908.44;10092857;28;20048;-68
2021/07/27 15:36:32;;;;;;;10.05;6.25;;;;;;;26.03;38.82;100914.00;10109410;28;20081;-69
2021/07/27 15:41:29;;;;;;;9.63;6.55;;;;;;;26.12;38.65;100910.69;10107515;28;20050;-70
2021/07/27 15:46:25;;;;;;;9.18;7.55;;;;;;;26.31;38.66;100905.63;10102347;28;20093;-68
2021/07/27 15:51:22;;;;;;;11.57;7.65;;;;;;;26.48;38.42;100904.59;10107496;28;20039;-68
2021/07/27 15:56:18;;;;;;;12.32;6.80;;;;;;;26.39;38.78;100901.53;10110763;28;20505;-67
2021/07/27 16:01:15;;;;;;;10.10;7.38;;;;;;;26.54;38.45;100897.31;10113241;28;20042;-69
2021/07/27 16:06:11;;;;;;;10.20;7.18;;;;;;;26.58;39.63;100892.44;10110372;28;20053;-69
2021/07/27 16:11:08;;;;;;;9.55;6.95;;;;;;;26.46;38.74;100890.22;10116644;28;20042;-70
2021/07/27 16:16:07;;;;;;;12.60;7.40;;;;;;;26.35;39.20;100892.38;10110825;28;20497;-69
2021/07/27 16:21:04;;;;;;;9.57;6.85;;;;;;;27.05;37.78;100898.09;10118399;28;20555;-68
2021/07/27 16:26:02;;;;;;;8.73;6.45;;;;;;;28.40;36.29;100897.88;10110099;28;20077;-67
2021/07/27 16:30:59;;;;;;;10.93;6.40;;;;;;;29.24;34.63;100884.97;10105426;28;20077;-68
2021/07/27 16:35:56;;;;;;;9.70;6.22;;;;;;;29.10;33.48;100883.34;10088302;28;20362;-69
2021/07/27 16:40:53;;;;;;;8.13;5.97;;;;;;;29.41;32.98;100888.56;10098451;28;20085;-69
2021/07/27 16:45:51;;;;;;;10.68;6.30;;;;;;;29.49;32.86;100892.72;10094456;28;20042;-68
2021/07/27 16:50:47;;;;;;;8.40;6.60;;;;;;;29.25;32.73;100899.84;10103027;28;20523;-69
2021/07/27 16:55:44;;;;;;;7.70;6.47;;;;;;;28.87;33.44;100886.31;10091347;28;20063;-68
2021/07/27 17:00:40;;;;;;;9.27;5.65;;;;;;;28.33;34.93;100888.34;10110625;28;20039;-68
2021/07/27 17:05:37;;;;;;;9.15;6.68;;;;;;;27.53;36.17;100879.22;10090867;28;20064;-68
2021/07/27 17:10:33;;;;;;;7.95;6.88;;;;;;;27.12;37.11;100879.53;10092158;28;20102;-69
2021/07/27 17:15:30;;;;;;;7.80;5.97;;;;;;;26.86;37.83;100867.97;10098206;28;20454;-68
2021/07/27 17:20:26;;;;;;;11.65;6.90;;;;;;;26.57;38.37;100868.44;10100065;28;20105;-68
2021/07/27 17:25:23;;;;;;;8.80;6.38;;;;;;;26.41;38.78;100859.81;10089594;28;20053;-68
2021/07/27 17:30:20;;;;;;;9.10;6.22;;;;;;;26.37;39.39;100859.09;10095941;28;20051;-67
2021/07/27 17:35:16;;;;;;;9.00;6.35;;;;;;;26.22;39.46;100848.13;10089447;28;20054;-66
2021/07/27 17:40:13;;;;;;;9.35;6.70;;;;;;;26.22;39.46;100859.31;10095561;28;20086;-67
2021/07/27 17:45:10;;;;;;;10.43;6.70;;;;;;;26.25;39.00;100863.28;10088452;28;20125;-68
2021/07/27 17:50:10;;;;;;;8.82;7.20;;;;;;;26.16;39.24;100858.19;10091467;28;20074;-70
2021/07/27 17:55:07;;;;;;;9.75;6.75;;;;;;;26.02;39.75;100862.00;10081722;28;20046;-68
2021/07/27 18:00:05;;;;;;;10.90;7.78;;;;;;;25.82;40.23;100863.81;10100759;28;20057;-68
2021/07/27 18:05:03;;;;;;;10.95;6.72;;;;;;;25.72;40.51;100862.75;10089788;28;20090;-69
2021/07/27 18:10:03;;;;;;;8.15;6.38;;;;;;;25.66;41.05;100858.03;10105086;28;20147;-67
2021/07/27 18:15:03;;;;;;;9.57;6.60;;;;;;;25.59;41.09;100867.28;10104785;28;20054;-68
2021/07/27 18:20:00;;;;;;;9.00;6.97;;;;;;;25.57;41.50;100864.13;10094716;28;20058;-69
2021/07/27 18:24:56;;;;;;;9.18;6.28;;;;;;;25.54;41.36;100864.97;10107981;28;20055;-68
2021/07/27 18:29:53;;;;;;;9.85;6.80;;;;;;;25.38;42.04;100862.72;10094695;28;20074;-69
2021/07/27 18:34:49;;;;;;;9.52;6.45;;;;;;;25.21;42.28;100870.13;10105846;28;20042;-68
2021/07/27 18:39:46;;;;;;;11.82;7.22;;;;;;;25.07;42.69;100875.81;10101847;28;20047;-67
2021/07/27 18:44:42;;;;;;;18.70;9.82;;;;;;;23.93;52.93;100929.22;10099723;28;20657;-67
2021/07/27 18:49:39;;;;;;;14.27;8.43;;;;;;;22.38;59.61;100894.19;10077735;28;20434;-68
2021/07/27 18:54:35;;;;;;;9.73;6.78;;;;;;;21.93;57.16;100896.44;10089055;28;20098;-72
2021/07/27 18:59:32;;;;;;;10.90;7.57;;;;;;;21.75;57.14;100895.53;10090306;28;20493;-69
2021/07/27 19:04:29;;;;;;;12.93;8.07;;;;;;;21.68;61.96;100901.06;10082998;28;20066;-69
2021/07/27 19:09:25;;;;;;;13.60;8.93;;;;;;;21.59;61.24;100905.00;10089962;28;20391;-71
2021/07/27 19:14:22;;;;;;;13.70;8.93;;;;;;;21.58;64.20;100897.84;10093012;28;20484;-69
2021/07/27 19:19:18;;;;;;;13.48;9.68;;;;;;;21.53;64.74;100900.97;10090175;28;20509;-68
2021/07/27 19:24:15;;;;;;;12.35;9.10;;;;;;;21.49;64.72;100900.19;10093936;28;20513;-69
2021/07/27 19:29:11;;;;;;;14.93;11.43;;;;;;;21.45;66.21;100904.91;10087477;28;20039;-70
2021/07/27 19:34:08;;;;;;;14.73;10.30;;;;;;;21.40;66.60;100908.06;10105670;28;20043;-68
2021/07/27 19:39:04;;;;;;;13.40;10.40;;;;;;;21.41;67.20;100909.66;10103371;28;22108;-69
2021/07/27 19:44:06;;;;;;;14.50;9.88;;;;;;;21.29;67.15;100904.38;10097359;28;20505;-69
2021/07/27 19:54:05;;;;;;;;;;;;;;;21.15;68.10;100919.75;10105212;28;20047;-70
2021/07/27 19:59:01;;;;;;;14.80;10.18;;;;;;;21.10;68.92;100931.25;10097474;28;19993;-69
2021/07/27 20:03:59;;;;;;;11.93;9.50;;;;;;;21.10;68.58;100939.59;10103323;28;20050;-69
2021/07/27 20:08:55;;;;;;;17.10;10.40;;;;;;;21.09;69.67;100943.53;10093822;28;20070;-69
2021/07/27 20:13:52;;;;;;;13.13;9.98;;;;;;;21.05;69.02;100941.91;10091385;28;20043;-69
2021/07/27 20:18:49;;;;;;;10.85;8.63;;;;;;;21.14;67.71;100940.44;10090908;28;20051;-68
2021/07/27 20:23:46;;;;;;;10.48;6.97;;;;;;;21.12;63.19;100948.34;10093542;28;20112;-70
2021/07/27 20:28:42;;;;;;;12.52;6.68;;;;;;;21.26;59.53;100952.41;10096067;28;20125;-69
2021/07/27 20:33:39;;;;;;;8.00;6.43;;;;;;;21.34;59.69;100954.06;10101155;28;20090;-71
2021/07/27 20:38:35;;;;;;;10.82;6.40;;;;;;;21.38;60.20;100957.69;10095953;28;20082;-71
2021/07/27 20:43:32;;;;;;;8.07;4.68;;;;;;;21.41;58.75;100971.63;10085002;28;20134;-71
2021/07/27 20:48:28;;;;;;;7.95;5.00;;;;;;;21.42;58.49;100964.06;10089892;28;20472;-72
2021/07/27 20:53:26;;;;;;;7.65;5.38;;;;;;;21.40;57.51;100963.69;10094329;28;20046;-72
2021/07/27 20:58:22;;;;;;;8.85;5.45;;;;;;;21.39;57.07;100960.06;10108180;28;20126;-73
2021/07/27 21:03:19;;;;;;;9.23;5.70;;;;;;;21.40;56.92;100969.25;10092188;28;20055;-73
2021/07/27 21:08:16;;;;;;;8.50;5.85;;;;;;;21.42;56.41;100955.72;10098661;28;20126;-72
2021/07/27 21:13:12;;;;;;;8.00;5.95;;;;;;;21.43;56.53;100962.91;10109114;28;20035;-71
2021/07/27 21:18:09;;;;;;;11.30;5.80;;;;;;;21.47;56.44;100958.19;10112182;28;20126;-71
2021/07/27 21:23:06;;;;;;;7.72;5.57;;;;;;;21.49;58.70;100966.94;10106028;28;20096;-71
2021/07/27 21:28:05;;;;;;;8.40;6.13;;;;;;;21.43;59.33;100958.13;10115517;28;20101;-73
2021/07/27 21:33:02;;;;;;;8.55;6.55;;;;;;;21.41;61.42;100945.81;10112486;28;20103;-73
2021/07/27 21:37:59;;;;;;;9.23;6.45;;;;;;;21.37;62.15;100944.94;10110474;28;20094;-73
2021/07/27 21:42:55;;;;;;;11.18;7.05;;;;;;;21.32;61.88;100956.44;10106832;28;20051;-74
2021/07/27 21:47:52;;;;;;;8.02;6.20;;;;;;;21.28;62.63;100944.47;10107682;28;20064;-74
2021/07/27 21:52:48;;;;;;;8.90;6.95;;;;;;;21.27;61.75;100942.91;10110800;28;20081;-70
2021/07/27 21:57:45;;;;;;;12.52;7.25;;;;;;;21.22;62.07;100944.84;10106518;28;20042;-69
2021/07/27 22:02:41;;;;;;;10.65;7.50;;;;;;;21.15;62.22;100950.34;10102018;28;20043;-69
2021/07/27 22:07:38;;;;;;;10.18;7.07;;;;;;;21.15;63.61;100944.00;10095678;28;20039;-69
2021/07/27 22:12:34;;;;;;;9.52;7.03;;;;;;;21.11;64.45;100946.72;10102343;28;20047;-70
2021/07/27 22:17:31;;;;;;;9.82;7.40;;;;;;;21.07;64.65;100943.13;10099235;28;20098;-69
2021/07/27 22:22:27;;;;;;;10.18;8.05;;;;;;;21.03;65.42;100939.53;10110428;28;20078;-70
2021/07/27 22:27:25;;;;;;;10.38;7.60;;;;;;;20.99;65.13;100950.59;10104558;28;20101;-69
2021/07/27 22:32:22;;;;;;;11.15;7.88;;;;;;;20.98;64.22;100942.66;10107777;28;20089;-70
2021/07/27 22:37:20;;;;;;;8.25;6.85;;;;;;;21.01;62.91;100936.34;10109010;28;20038;-70
2021/07/27 22:42:17;;;;;;;12.45;7.97;;;;;;;21.03;64.06;100950.66;10102650;28;20042;-69
2021/07/27 22:47:13;;;;;;;14.00;8.60;;;;;;;20.99;64.45;100944.25;10105123;28;20047;-70
2021/07/27 22:52:10;;;;;;;12.90;8.75;;;;;;;20.98;64.74;100942.66;10107948;28;20496;-70
2021/07/27 22:57:06;;;;;;;14.07;9.90;;;;;;;20.93;65.34;100956.91;10099125;28;20043;-73
2021/07/27 23:02:03;;;;;;;14.40;9.70;;;;;;;20.92;65.97;100949.75;10106700;28;20042;-73